sensor_id;sensor_type;location;lat;lon;timestamp;P1;durP1;ratioP1;P2;durP2;ratioP2
37297;SDS011;30517;51.932;4.278;2023-01-25T00:00:42;21.17;;;13.20;;
37297;SDS011;30517;51.932;4.278;2023-01-25T00:03:23;22.67;;;13.63;;
37297;SDS011;30517;51.932;4.278;2023-01-25T00:06:03;22.88;;;14.90;;
37297;SDS011;30517;51.932;4.278;2023-01-25T00:08:48;21.13;;;12.98;;
37297;SDS011;30517;51.932;4.278;2023-01-25T00:11:29;21.35;;;13.68;;
37297;SDS011;30517;51.932;4.278;2023-01-25T00:14:10;21.50;;;12.65;;
37297;SDS011;30517;51.932;4.278;2023-01-25T00:16:52;20.85;;;12.85;;
37297;SDS011;30517;51.932;4.278;2023-01-25T00:19:32;23.25;;;14.50;;
37297;SDS011;30517;51.932;4.278;2023-01-25T00:22:13;22.50;;;13.48;;
37297;SDS011;30517;51.932;4.278;2023-01-25T00:24:54;20.70;;;13.20;;
37297;SDS011;30517;51.932;4.278;2023-01-25T00:27:35;21.58;;;12.68;;
37297;SDS011;30517;51.932;4.278;2023-01-25T00:30:15;20.67;;;12.93;;
37297;SDS011;30517;51.932;4.278;2023-01-25T00:32:57;22.10;;;13.43;;
37297;SDS011;30517;51.932;4.278;2023-01-25T00:35:46;20.80;;;13.55;;
37297;SDS011;30517;51.932;4.278;2023-01-25T00:38:33;19.52;;;11.60;;
37297;SDS011;30517;51.932;4.278;2023-01-25T00:41:14;23.20;;;13.90;;
37297;SDS011;30517;51.932;4.278;2023-01-25T00:43:55;20.65;;;12.18;;
37297;SDS011;30517;51.932;4.278;2023-01-25T00:46:36;21.73;;;14.15;;
37297;SDS011;30517;51.932;4.278;2023-01-25T00:49:20;21.05;;;12.07;;
37297;SDS011;30517;51.932;4.278;2023-01-25T00:52:03;23.63;;;13.77;;
37297;SDS011;30517;51.932;4.278;2023-01-25T00:54:44;20.98;;;13.70;;
37297;SDS011;30517;51.932;4.278;2023-01-25T00:57:25;21.30;;;12.73;;
37297;SDS011;30517;51.932;4.278;2023-01-25T01:00:06;19.73;;;11.93;;
37297;SDS011;30517;51.932;4.278;2023-01-25T01:02:48;20.83;;;12.45;;
37297;SDS011;30517;51.932;4.278;2023-01-25T01:05:28;23.20;;;13.95;;
37297;SDS011;30517;51.932;4.278;2023-01-25T01:08:09;20.92;;;12.35;;
37297;SDS011;30517;51.932;4.278;2023-01-25T01:10:56;22.25;;;12.63;;
37297;SDS011;30517;51.932;4.278;2023-01-25T01:13:39;21.77;;;13.20;;
37297;SDS011;30517;51.932;4.278;2023-01-25T01:16:20;23.90;;;14.00;;
37297;SDS011;30517;51.932;4.278;2023-01-25T01:19:01;23.65;;;13.95;;
37297;SDS011;30517;51.932;4.278;2023-01-25T01:21:42;21.52;;;13.23;;
37297;SDS011;30517;51.932;4.278;2023-01-25T01:24:22;19.92;;;12.48;;
37297;SDS011;30517;51.932;4.278;2023-01-25T01:27:03;21.70;;;12.50;;
37297;SDS011;30517;51.932;4.278;2023-01-25T01:29:44;22.15;;;13.30;;
37297;SDS011;30517;51.932;4.278;2023-01-25T01:32:25;20.45;;;12.43;;
37297;SDS011;30517;51.932;4.278;2023-01-25T01:35:06;21.25;;;12.63;;
37297;SDS011;30517;51.932;4.278;2023-01-25T01:37:47;20.90;;;13.13;;
37297;SDS011;30517;51.932;4.278;2023-01-25T01:40:28;21.08;;;13.10;;
37297;SDS011;30517;51.932;4.278;2023-01-25T01:43:15;22.45;;;12.75;;
37297;SDS011;30517;51.932;4.278;2023-01-25T01:45:58;22.10;;;13.38;;
37297;SDS011;30517;51.932;4.278;2023-01-25T01:57:24;21.58;;;13.05;;
37297;SDS011;30517;51.932;4.278;2023-01-25T02:00:14;20.05;;;11.68;;
37297;SDS011;30517;51.932;4.278;2023-01-25T02:03:09;20.27;;;12.57;;
37297;SDS011;30517;51.932;4.278;2023-01-25T02:05:56;21.05;;;12.95;;
37297;SDS011;30517;51.932;4.278;2023-01-25T02:08:43;21.17;;;13.25;;
37297;SDS011;30517;51.932;4.278;2023-01-25T02:11:24;21.27;;;13.02;;
37297;SDS011;30517;51.932;4.278;2023-01-25T02:14:07;23.70;;;13.73;;
37297;SDS011;30517;51.932;4.278;2023-01-25T02:16:48;21.45;;;13.38;;
37297;SDS011;30517;51.932;4.278;2023-01-25T02:19:36;21.70;;;12.90;;
37297;SDS011;30517;51.932;4.278;2023-01-25T02:22:19;23.13;;;14.07;;
37297;SDS011;30517;51.932;4.278;2023-01-25T02:25:04;22.23;;;13.30;;
37297;SDS011;30517;51.932;4.278;2023-01-25T02:30:51;20.05;;;12.85;;
37297;SDS011;30517;51.932;4.278;2023-01-25T02:33:32;21.42;;;13.10;;
37297;SDS011;30517;51.932;4.278;2023-01-25T02:36:20;20.33;;;12.98;;
37297;SDS011;30517;51.932;4.278;2023-01-25T02:39:09;22.23;;;13.55;;
37297;SDS011;30517;51.932;4.278;2023-01-25T02:41:55;23.08;;;13.35;;
37297;SDS011;30517;51.932;4.278;2023-01-25T02:44:35;21.92;;;12.82;;
37297;SDS011;30517;51.932;4.278;2023-01-25T02:47:17;21.35;;;13.63;;
37297;SDS011;30517;51.932;4.278;2023-01-25T02:49:58;21.70;;;13.57;;
37297;SDS011;30517;51.932;4.278;2023-01-25T02:52:39;24.15;;;13.82;;
37297;SDS011;30517;51.932;4.278;2023-01-25T02:55:20;22.15;;;13.52;;
37297;SDS011;30517;51.932;4.278;2023-01-25T02:58:00;23.80;;;14.38;;
37297;SDS011;30517;51.932;4.278;2023-01-25T03:00:41;23.45;;;13.85;;
37297;SDS011;30517;51.932;4.278;2023-01-25T03:03:22;23.65;;;14.30;;
37297;SDS011;30517;51.932;4.278;2023-01-25T03:06:03;23.85;;;13.63;;
37297;SDS011;30517;51.932;4.278;2023-01-25T03:08:44;23.13;;;13.50;;
37297;SDS011;30517;51.932;4.278;2023-01-25T03:11:25;25.10;;;14.18;;
37297;SDS011;30517;51.932;4.278;2023-01-25T03:14:06;22.85;;;12.50;;
37297;SDS011;30517;51.932;4.278;2023-01-25T03:16:47;22.35;;;13.77;;
37297;SDS011;30517;51.932;4.278;2023-01-25T03:19:27;25.27;;;14.35;;
37297;SDS011;30517;51.932;4.278;2023-01-25T03:22:08;25.17;;;14.00;;
37297;SDS011;30517;51.932;4.278;2023-01-25T03:24:50;20.10;;;13.13;;
37297;SDS011;30517;51.932;4.278;2023-01-25T03:27:30;24.20;;;13.80;;
37297;SDS011;30517;51.932;4.278;2023-01-25T03:30:11;21.38;;;13.30;;
37297;SDS011;30517;51.932;4.278;2023-01-25T03:32:52;23.40;;;14.23;;
37297;SDS011;30517;51.932;4.278;2023-01-25T03:35:33;25.27;;;14.75;;
37297;SDS011;30517;51.932;4.278;2023-01-25T03:38:13;22.90;;;14.25;;
37297;SDS011;30517;51.932;4.278;2023-01-25T03:40:54;23.67;;;13.95;;
37297;SDS011;30517;51.932;4.278;2023-01-25T03:43:35;21.40;;;13.07;;
37297;SDS011;30517;51.932;4.278;2023-01-25T03:46:16;21.90;;;12.88;;
37297;SDS011;30517;51.932;4.278;2023-01-25T03:48:56;24.30;;;14.43;;
37297;SDS011;30517;51.932;4.278;2023-01-25T03:51:37;23.77;;;13.05;;
37297;SDS011;30517;51.932;4.278;2023-01-25T03:54:18;25.52;;;14.15;;
37297;SDS011;30517;51.932;4.278;2023-01-25T03:56:59;22.77;;;13.75;;
37297;SDS011;30517;51.932;4.278;2023-01-25T03:59:40;24.10;;;14.15;;
37297;SDS011;30517;51.932;4.278;2023-01-25T04:02:21;19.02;;;12.35;;
37297;SDS011;30517;51.932;4.278;2023-01-25T04:05:02;23.90;;;13.77;;
37297;SDS011;30517;51.932;4.278;2023-01-25T04:07:44;21.88;;;12.90;;
37297;SDS011;30517;51.932;4.278;2023-01-25T04:10:24;22.98;;;13.82;;
37297;SDS011;30517;51.932;4.278;2023-01-25T04:13:05;23.80;;;14.05;;
37297;SDS011;30517;51.932;4.278;2023-01-25T04:15:46;23.83;;;13.68;;
37297;SDS011;30517;51.932;4.278;2023-01-25T04:18:27;21.05;;;12.52;;
37297;SDS011;30517;51.932;4.278;2023-01-25T04:21:08;23.98;;;14.35;;
37297;SDS011;30517;51.932;4.278;2023-01-25T04:23:48;22.85;;;13.80;;
37297;SDS011;30517;51.932;4.278;2023-01-25T04:26:29;24.27;;;13.82;;
37297;SDS011;30517;51.932;4.278;2023-01-25T04:29:10;25.33;;;14.65;;
37297;SDS011;30517;51.932;4.278;2023-01-25T04:31:51;20.02;;;12.48;;
37297;SDS011;30517;51.932;4.278;2023-01-25T04:34:32;22.23;;;12.23;;
37297;SDS011;30517;51.932;4.278;2023-01-25T04:37:13;20.17;;;12.07;;
37297;SDS011;30517;51.932;4.278;2023-01-25T04:39:54;24.17;;;14.18;;
37297;SDS011;30517;51.932;4.278;2023-01-25T04:42:34;22.50;;;13.48;;
37297;SDS011;30517;51.932;4.278;2023-01-25T04:45:15;23.35;;;14.32;;
37297;SDS011;30517;51.932;4.278;2023-01-25T04:47:57;26.60;;;14.63;;
37297;SDS011;30517;51.932;4.278;2023-01-25T04:53:25;23.55;;;13.18;;
37297;SDS011;30517;51.932;4.278;2023-01-25T04:56:05;21.33;;;12.20;;
37297;SDS011;30517;51.932;4.278;2023-01-25T04:58:46;23.33;;;13.60;;
37297;SDS011;30517;51.932;4.278;2023-01-25T05:01:27;24.08;;;14.23;;
37297;SDS011;30517;51.932;4.278;2023-01-25T05:04:08;20.75;;;12.82;;
37297;SDS011;30517;51.932;4.278;2023-01-25T05:06:49;26.08;;;13.40;;
37297;SDS011;30517;51.932;4.278;2023-01-25T05:09:30;24.88;;;13.20;;
37297;SDS011;30517;51.932;4.278;2023-01-25T05:12:10;21.90;;;13.65;;
37297;SDS011;30517;51.932;4.278;2023-01-25T05:14:52;25.02;;;14.18;;
37297;SDS011;30517;51.932;4.278;2023-01-25T05:17:33;22.65;;;13.98;;
37297;SDS011;30517;51.932;4.278;2023-01-25T05:20:14;23.42;;;12.52;;
37297;SDS011;30517;51.932;4.278;2023-01-25T05:22:55;25.55;;;14.13;;
37297;SDS011;30517;51.932;4.278;2023-01-25T05:25:36;29.95;;;17.08;;
37297;SDS011;30517;51.932;4.278;2023-01-25T05:28:35;34.70;;;19.98;;
37297;SDS011;30517;51.932;4.278;2023-01-25T05:31:16;38.20;;;21.73;;
37297;SDS011;30517;51.932;4.278;2023-01-25T05:33:57;42.42;;;23.08;;
37297;SDS011;30517;51.932;4.278;2023-01-25T05:36:38;36.83;;;21.77;;
37297;SDS011;30517;51.932;4.278;2023-01-25T05:39:19;37.15;;;21.98;;
37297;SDS011;30517;51.932;4.278;2023-01-25T05:42:00;37.35;;;21.50;;
37297;SDS011;30517;51.932;4.278;2023-01-25T05:44:41;40.22;;;22.50;;
37297;SDS011;30517;51.932;4.278;2023-01-25T05:47:22;35.65;;;20.08;;
37297;SDS011;30517;51.932;4.278;2023-01-25T05:50:03;40.25;;;22.63;;
37297;SDS011;30517;51.932;4.278;2023-01-25T05:52:44;35.63;;;20.60;;
37297;SDS011;30517;51.932;4.278;2023-01-25T05:55:25;40.50;;;21.92;;
37297;SDS011;30517;51.932;4.278;2023-01-25T05:58:06;36.53;;;21.17;;
37297;SDS011;30517;51.932;4.278;2023-01-25T06:00:47;36.05;;;20.35;;
37297;SDS011;30517;51.932;4.278;2023-01-25T06:03:28;33.72;;;20.50;;
37297;SDS011;30517;51.932;4.278;2023-01-25T06:06:09;35.17;;;19.42;;
37297;SDS011;30517;51.932;4.278;2023-01-25T06:08:50;32.47;;;19.98;;
37297;SDS011;30517;51.932;4.278;2023-01-25T06:11:31;36.83;;;21.73;;
37297;SDS011;30517;51.932;4.278;2023-01-25T06:14:11;34.90;;;20.02;;
37297;SDS011;30517;51.932;4.278;2023-01-25T06:16:52;32.28;;;19.55;;
37297;SDS011;30517;51.932;4.278;2023-01-25T06:19:33;33.38;;;19.42;;
37297;SDS011;30517;51.932;4.278;2023-01-25T06:22:14;32.60;;;19.30;;
37297;SDS011;30517;51.932;4.278;2023-01-25T06:24:55;31.98;;;17.90;;
37297;SDS011;30517;51.932;4.278;2023-01-25T06:27:35;34.53;;;20.35;;
37297;SDS011;30517;51.932;4.278;2023-01-25T06:30:16;36.35;;;21.20;;
37297;SDS011;30517;51.932;4.278;2023-01-25T06:32:57;37.17;;;19.90;;
37297;SDS011;30517;51.932;4.278;2023-01-25T06:35:38;36.45;;;20.25;;
37297;SDS011;30517;51.932;4.278;2023-01-25T06:38:22;35.45;;;19.00;;
37297;SDS011;30517;51.932;4.278;2023-01-25T06:41:03;36.67;;;20.20;;
37297;SDS011;30517;51.932;4.278;2023-01-25T06:43:46;32.22;;;18.75;;
37297;SDS011;30517;51.932;4.278;2023-01-25T06:49:11;32.20;;;18.92;;
37297;SDS011;30517;51.932;4.278;2023-01-25T06:51:52;27.80;;;15.63;;
37297;SDS011;30517;51.932;4.278;2023-01-25T06:54:34;33.70;;;19.00;;
37297;SDS011;30517;51.932;4.278;2023-01-25T06:57:14;31.35;;;18.67;;
37297;SDS011;30517;51.932;4.278;2023-01-25T06:59:55;32.10;;;17.80;;
37297;SDS011;30517;51.932;4.278;2023-01-25T07:02:36;29.50;;;17.05;;
37297;SDS011;30517;51.932;4.278;2023-01-25T07:05:17;34.53;;;18.65;;
37297;SDS011;30517;51.932;4.278;2023-01-25T07:07:57;34.30;;;18.45;;
37297;SDS011;30517;51.932;4.278;2023-01-25T07:10:38;31.92;;;17.63;;
37297;SDS011;30517;51.932;4.278;2023-01-25T07:13:19;29.00;;;16.80;;
37297;SDS011;30517;51.932;4.278;2023-01-25T07:16:04;31.90;;;17.98;;
37297;SDS011;30517;51.932;4.278;2023-01-25T07:18:46;31.27;;;17.88;;
37297;SDS011;30517;51.932;4.278;2023-01-25T07:21:27;32.50;;;18.23;;
37297;SDS011;30517;51.932;4.278;2023-01-25T07:24:12;32.00;;;17.02;;
37297;SDS011;30517;51.932;4.278;2023-01-25T07:26:55;32.08;;;16.02;;
37297;SDS011;30517;51.932;4.278;2023-01-25T07:29:36;31.92;;;16.88;;
37297;SDS011;30517;51.932;4.278;2023-01-25T07:32:17;32.83;;;17.27;;
37297;SDS011;30517;51.932;4.278;2023-01-25T07:34:57;33.50;;;19.60;;
37297;SDS011;30517;51.932;4.278;2023-01-25T07:37:38;32.50;;;17.40;;
37297;SDS011;30517;51.932;4.278;2023-01-25T07:40:19;28.85;;;17.05;;
37297;SDS011;30517;51.932;4.278;2023-01-25T07:45:45;34.42;;;18.05;;
37297;SDS011;30517;51.932;4.278;2023-01-25T07:48:29;32.78;;;18.65;;
37297;SDS011;30517;51.932;4.278;2023-01-25T07:51:11;33.03;;;17.45;;
37297;SDS011;30517;51.932;4.278;2023-01-25T07:53:56;28.65;;;16.23;;
37297;SDS011;30517;51.932;4.278;2023-01-25T07:56:38;32.15;;;17.70;;
37297;SDS011;30517;51.932;4.278;2023-01-25T07:59:19;31.65;;;18.15;;
37297;SDS011;30517;51.932;4.278;2023-01-25T08:02:00;29.55;;;17.58;;
37297;SDS011;30517;51.932;4.278;2023-01-25T08:04:41;31.45;;;18.20;;
37297;SDS011;30517;51.932;4.278;2023-01-25T08:07:22;30.92;;;17.05;;
37297;SDS011;30517;51.932;4.278;2023-01-25T08:10:02;29.13;;;16.33;;
37297;SDS011;30517;51.932;4.278;2023-01-25T08:12:45;38.65;;;20.77;;
37297;SDS011;30517;51.932;4.278;2023-01-25T08:15:26;31.27;;;17.02;;
37297;SDS011;30517;51.932;4.278;2023-01-25T08:18:07;31.80;;;16.90;;
37297;SDS011;30517;51.932;4.278;2023-01-25T08:20:48;28.60;;;16.25;;
37297;SDS011;30517;51.932;4.278;2023-01-25T08:23:29;28.02;;;16.67;;
37297;SDS011;30517;51.932;4.278;2023-01-25T08:26:11;26.23;;;17.00;;
37297;SDS011;30517;51.932;4.278;2023-01-25T08:28:53;30.05;;;15.90;;
37297;SDS011;30517;51.932;4.278;2023-01-25T08:31:34;31.15;;;16.75;;
37297;SDS011;30517;51.932;4.278;2023-01-25T08:34:16;30.88;;;17.48;;
37297;SDS011;30517;51.932;4.278;2023-01-25T08:36:57;27.63;;;15.90;;
37297;SDS011;30517;51.932;4.278;2023-01-25T08:39:37;29.08;;;16.52;;
37297;SDS011;30517;51.932;4.278;2023-01-25T08:42:18;28.55;;;16.52;;
37297;SDS011;30517;51.932;4.278;2023-01-25T08:44:59;26.02;;;13.85;;
37297;SDS011;30517;51.932;4.278;2023-01-25T08:47:43;27.98;;;16.80;;
37297;SDS011;30517;51.932;4.278;2023-01-25T08:50:23;28.33;;;16.65;;
37297;SDS011;30517;51.932;4.278;2023-01-25T08:53:04;29.33;;;16.05;;
37297;SDS011;30517;51.932;4.278;2023-01-25T08:55:45;32.58;;;16.33;;
37297;SDS011;30517;51.932;4.278;2023-01-25T08:58:26;27.17;;;15.77;;
37297;SDS011;30517;51.932;4.278;2023-01-25T09:01:09;28.75;;;15.63;;
37297;SDS011;30517;51.932;4.278;2023-01-25T09:03:51;24.80;;;14.23;;
37297;SDS011;30517;51.932;4.278;2023-01-25T09:06:33;27.85;;;15.13;;
37297;SDS011;30517;51.932;4.278;2023-01-25T09:09:14;26.02;;;15.00;;
37297;SDS011;30517;51.932;4.278;2023-01-25T09:11:55;31.35;;;16.42;;
37297;SDS011;30517;51.932;4.278;2023-01-25T09:14:36;29.08;;;14.88;;
37297;SDS011;30517;51.932;4.278;2023-01-25T09:17:19;26.08;;;14.70;;
37297;SDS011;30517;51.932;4.278;2023-01-25T09:19:59;29.50;;;15.50;;
37297;SDS011;30517;51.932;4.278;2023-01-25T09:22:40;28.33;;;14.65;;
37297;SDS011;30517;51.932;4.278;2023-01-25T09:25:21;27.40;;;14.85;;
37297;SDS011;30517;51.932;4.278;2023-01-25T09:28:02;27.27;;;15.45;;
37297;SDS011;30517;51.932;4.278;2023-01-25T09:30:56;26.30;;;15.07;;
37297;SDS011;30517;51.932;4.278;2023-01-25T09:33:39;26.90;;;15.13;;
37297;SDS011;30517;51.932;4.278;2023-01-25T09:36:20;26.05;;;14.40;;
37297;SDS011;30517;51.932;4.278;2023-01-25T09:39:04;24.70;;;14.00;;
37297;SDS011;30517;51.932;4.278;2023-01-25T09:42:01;24.58;;;14.68;;
37297;SDS011;30517;51.932;4.278;2023-01-25T09:47:53;27.90;;;15.75;;
37297;SDS011;30517;51.932;4.278;2023-01-25T09:53:31;29.13;;;14.13;;
37297;SDS011;30517;51.932;4.278;2023-01-25T09:56:25;23.67;;;13.00;;
37297;SDS011;30517;51.932;4.278;2023-01-25T09:59:13;26.05;;;15.60;;
37297;SDS011;30517;51.932;4.278;2023-01-25T10:02:01;24.38;;;14.23;;
37297;SDS011;30517;51.932;4.278;2023-01-25T10:04:56;26.30;;;14.43;;
37297;SDS011;30517;51.932;4.278;2023-01-25T10:10:58;26.70;;;13.73;;
37297;SDS011;30517;51.932;4.278;2023-01-25T10:13:46;26.58;;;13.95;;
37297;SDS011;30517;51.932;4.278;2023-01-25T10:16:29;26.42;;;13.93;;
37297;SDS011;30517;51.932;4.278;2023-01-25T10:22:35;22.40;;;13.57;;
37297;SDS011;30517;51.932;4.278;2023-01-25T10:25:26;23.52;;;12.82;;
37297;SDS011;30517;51.932;4.278;2023-01-25T10:31:19;28.52;;;15.52;;
37297;SDS011;30517;51.932;4.278;2023-01-25T10:37:13;24.55;;;14.15;;
37297;SDS011;30517;51.932;4.278;2023-01-25T10:39:57;25.65;;;13.90;;
37297;SDS011;30517;51.932;4.278;2023-01-25T10:42:54;22.25;;;12.73;;
37297;SDS011;30517;51.932;4.278;2023-01-25T10:45:46;24.48;;;13.77;;
37297;SDS011;30517;51.932;4.278;2023-01-25T10:48:28;25.30;;;14.18;;
37297;SDS011;30517;51.932;4.278;2023-01-25T10:51:29;24.45;;;12.93;;
37297;SDS011;30517;51.932;4.278;2023-01-25T10:54:13;25.52;;;14.40;;
37297;SDS011;30517;51.932;4.278;2023-01-25T10:56:55;24.08;;;13.70;;
37297;SDS011;30517;51.932;4.278;2023-01-25T10:59:36;24.08;;;14.45;;
37297;SDS011;30517;51.932;4.278;2023-01-25T11:05:30;30.10;;;13.98;;
37297;SDS011;30517;51.932;4.278;2023-01-25T11:14:16;25.67;;;14.38;;
37297;SDS011;30517;51.932;4.278;2023-01-25T11:16:58;26.02;;;14.65;;
37297;SDS011;30517;51.932;4.278;2023-01-25T11:19:40;28.30;;;14.97;;
37297;SDS011;30517;51.932;4.278;2023-01-25T11:22:21;22.85;;;13.10;;
37297;SDS011;30517;51.932;4.278;2023-01-25T11:30:59;32.70;;;15.43;;
37297;SDS011;30517;51.932;4.278;2023-01-25T11:33:40;32.25;;;14.85;;
37297;SDS011;30517;51.932;4.278;2023-01-25T11:36:24;27.67;;;14.82;;
37297;SDS011;30517;51.932;4.278;2023-01-25T11:39:17;29.40;;;13.95;;
37297;SDS011;30517;51.932;4.278;2023-01-25T11:42:25;27.50;;;14.85;;
37297;SDS011;30517;51.932;4.278;2023-01-25T11:45:17;26.25;;;14.30;;
37297;SDS011;30517;51.932;4.278;2023-01-25T11:51:34;28.98;;;15.15;;
37297;SDS011;30517;51.932;4.278;2023-01-25T11:54:32;26.38;;;13.27;;
37297;SDS011;30517;51.932;4.278;2023-01-25T12:06:41;28.02;;;13.77;;
37297;SDS011;30517;51.932;4.278;2023-01-25T12:09:42;23.27;;;12.35;;
37297;SDS011;30517;51.932;4.278;2023-01-25T12:12:56;27.33;;;13.80;;
37297;SDS011;30517;51.932;4.278;2023-01-25T12:15:59;28.45;;;16.08;;
37297;SDS011;30517;51.932;4.278;2023-01-25T12:22:11;24.80;;;13.00;;
37297;SDS011;30517;51.932;4.278;2023-01-25T12:28:10;26.25;;;12.70;;
37297;SDS011;30517;51.932;4.278;2023-01-25T12:31:04;25.15;;;13.35;;
37297;SDS011;30517;51.932;4.278;2023-01-25T12:33:58;25.80;;;13.18;;
37297;SDS011;30517;51.932;4.278;2023-01-25T12:36:43;25.30;;;13.57;;
37297;SDS011;30517;51.932;4.278;2023-01-25T12:39:28;29.10;;;13.77;;
37297;SDS011;30517;51.932;4.278;2023-01-25T12:42:15;25.25;;;13.77;;
37297;SDS011;30517;51.932;4.278;2023-01-25T12:47:52;26.75;;;14.07;;
37297;SDS011;30517;51.932;4.278;2023-01-25T12:50:40;28.08;;;13.98;;
37297;SDS011;30517;51.932;4.278;2023-01-25T12:59:26;27.30;;;14.45;;
37297;SDS011;30517;51.932;4.278;2023-01-25T13:02:36;27.48;;;13.55;;
37297;SDS011;30517;51.932;4.278;2023-01-25T13:08:41;24.67;;;14.05;;
37297;SDS011;30517;51.932;4.278;2023-01-25T13:11:32;27.45;;;14.38;;
37297;SDS011;30517;51.932;4.278;2023-01-25T13:17:21;22.42;;;12.75;;
37297;SDS011;30517;51.932;4.278;2023-01-25T13:20:46;24.23;;;12.77;;
37297;SDS011;30517;51.932;4.278;2023-01-25T13:23:28;27.02;;;12.73;;
37297;SDS011;30517;51.932;4.278;2023-01-25T13:29:13;23.40;;;13.50;;
37297;SDS011;30517;51.932;4.278;2023-01-25T13:38:28;25.88;;;12.25;;
37297;SDS011;30517;51.932;4.278;2023-01-25T13:41:15;24.05;;;11.82;;
37297;SDS011;30517;51.932;4.278;2023-01-25T13:44:07;23.23;;;12.88;;
37297;SDS011;30517;51.932;4.278;2023-01-25T13:47:03;23.02;;;11.43;;
37297;SDS011;30517;51.932;4.278;2023-01-25T13:52:54;23.90;;;12.00;;
37297;SDS011;30517;51.932;4.278;2023-01-25T13:55:40;22.77;;;11.60;;
37297;SDS011;30517;51.932;4.278;2023-01-25T13:58:27;27.45;;;14.07;;
37297;SDS011;30517;51.932;4.278;2023-01-25T14:01:14;25.95;;;13.55;;
37297;SDS011;30517;51.932;4.278;2023-01-25T14:04:00;26.15;;;13.68;;
37297;SDS011;30517;51.932;4.278;2023-01-25T14:06:44;26.33;;;14.30;;
37297;SDS011;30517;51.932;4.278;2023-01-25T14:09:25;26.42;;;14.32;;
37297;SDS011;30517;51.932;4.278;2023-01-25T14:12:06;25.90;;;12.65;;
37297;SDS011;30517;51.932;4.278;2023-01-25T14:14:53;24.48;;;13.57;;
37297;SDS011;30517;51.932;4.278;2023-01-25T14:17:34;25.00;;;13.63;;
37297;SDS011;30517;51.932;4.278;2023-01-25T14:20:16;32.58;;;15.63;;
37297;SDS011;30517;51.932;4.278;2023-01-25T14:22:59;29.55;;;16.02;;
37297;SDS011;30517;51.932;4.278;2023-01-25T14:25:40;32.45;;;16.35;;
37297;SDS011;30517;51.932;4.278;2023-01-25T14:28:21;33.90;;;16.13;;
37297;SDS011;30517;51.932;4.278;2023-01-25T14:31:02;34.15;;;16.55;;
37297;SDS011;30517;51.932;4.278;2023-01-25T14:33:45;32.83;;;16.90;;
37297;SDS011;30517;51.932;4.278;2023-01-25T14:36:33;34.67;;;16.95;;
37297;SDS011;30517;51.932;4.278;2023-01-25T14:39:15;30.75;;;16.17;;
37297;SDS011;30517;51.932;4.278;2023-01-25T14:42:06;33.75;;;16.70;;
37297;SDS011;30517;51.932;4.278;2023-01-25T14:44:47;33.25;;;16.23;;
37297;SDS011;30517;51.932;4.278;2023-01-25T14:47:31;28.20;;;15.73;;
37297;SDS011;30517;51.932;4.278;2023-01-25T14:50:31;32.45;;;16.42;;
37297;SDS011;30517;51.932;4.278;2023-01-25T14:53:15;34.55;;;17.23;;
37297;SDS011;30517;51.932;4.278;2023-01-25T14:56:00;27.38;;;13.88;;
37297;SDS011;30517;51.932;4.278;2023-01-25T14:58:42;33.58;;;15.93;;
37297;SDS011;30517;51.932;4.278;2023-01-25T15:04:33;29.23;;;15.50;;
37297;SDS011;30517;51.932;4.278;2023-01-25T15:07:30;31.20;;;16.55;;
37297;SDS011;30517;51.932;4.278;2023-01-25T15:15:59;30.05;;;15.15;;
37297;SDS011;30517;51.932;4.278;2023-01-25T15:18:48;30.48;;;14.10;;
37297;SDS011;30517;51.932;4.278;2023-01-25T15:21:31;27.65;;;14.98;;
37297;SDS011;30517;51.932;4.278;2023-01-25T15:24:13;32.80;;;16.05;;
37297;SDS011;30517;51.932;4.278;2023-01-25T15:26:54;32.45;;;16.30;;
37297;SDS011;30517;51.932;4.278;2023-01-25T15:29:35;30.65;;;15.45;;
37297;SDS011;30517;51.932;4.278;2023-01-25T15:32:18;31.20;;;14.98;;
37297;SDS011;30517;51.932;4.278;2023-01-25T15:35:00;29.98;;;15.57;;
37297;SDS011;30517;51.932;4.278;2023-01-25T15:37:41;34.13;;;14.70;;
37297;SDS011;30517;51.932;4.278;2023-01-25T15:40:22;35.47;;;15.90;;
37297;SDS011;30517;51.932;4.278;2023-01-25T15:43:03;35.03;;;16.67;;
37297;SDS011;30517;51.932;4.278;2023-01-25T15:45:47;45.53;;;20.00;;
37297;SDS011;30517;51.932;4.278;2023-01-25T15:48:35;44.10;;;22.17;;
37297;SDS011;30517;51.932;4.278;2023-01-25T15:51:19;40.38;;;21.17;;
37297;SDS011;30517;51.932;4.278;2023-01-25T15:54:00;39.03;;;20.40;;
37297;SDS011;30517;51.932;4.278;2023-01-25T15:56:41;41.92;;;19.25;;
37297;SDS011;30517;51.932;4.278;2023-01-25T15:59:23;44.92;;;21.88;;
37297;SDS011;30517;51.932;4.278;2023-01-25T16:02:09;37.03;;;19.25;;
37297;SDS011;30517;51.932;4.278;2023-01-25T16:04:52;43.17;;;21.88;;
37297;SDS011;30517;51.932;4.278;2023-01-25T16:07:33;40.92;;;18.75;;
37297;SDS011;30517;51.932;4.278;2023-01-25T16:10:19;37.55;;;19.23;;
37297;SDS011;30517;51.932;4.278;2023-01-25T16:13:02;40.33;;;20.50;;
37297;SDS011;30517;51.932;4.278;2023-01-25T16:15:44;41.00;;;21.05;;
37297;SDS011;30517;51.932;4.278;2023-01-25T16:18:28;42.00;;;20.55;;
37297;SDS011;30517;51.932;4.278;2023-01-25T16:21:10;36.53;;;19.38;;
37297;SDS011;30517;51.932;4.278;2023-01-25T16:23:51;40.78;;;20.42;;
37297;SDS011;30517;51.932;4.278;2023-01-25T16:26:32;40.53;;;20.10;;
37297;SDS011;30517;51.932;4.278;2023-01-25T16:29:14;37.53;;;20.40;;
37297;SDS011;30517;51.932;4.278;2023-01-25T16:31:55;44.88;;;21.02;;
37297;SDS011;30517;51.932;4.278;2023-01-25T16:34:37;42.90;;;21.02;;
37297;SDS011;30517;51.932;4.278;2023-01-25T16:37:18;38.97;;;19.92;;
37297;SDS011;30517;51.932;4.278;2023-01-25T16:39:58;35.63;;;19.23;;
37297;SDS011;30517;51.932;4.278;2023-01-25T16:42:39;35.10;;;18.77;;
37297;SDS011;30517;51.932;4.278;2023-01-25T16:45:20;44.15;;;22.08;;
37297;SDS011;30517;51.932;4.278;2023-01-25T16:48:03;43.35;;;21.95;;
37297;SDS011;30517;51.932;4.278;2023-01-25T16:50:44;43.40;;;20.52;;
37297;SDS011;30517;51.932;4.278;2023-01-25T16:53:24;38.97;;;19.65;;
37297;SDS011;30517;51.932;4.278;2023-01-25T16:56:05;42.47;;;20.38;;
37297;SDS011;30517;51.932;4.278;2023-01-25T16:58:46;38.55;;;19.58;;
37297;SDS011;30517;51.932;4.278;2023-01-25T17:01:28;41.58;;;20.45;;
37297;SDS011;30517;51.932;4.278;2023-01-25T17:04:09;38.13;;;18.58;;
37297;SDS011;30517;51.932;4.278;2023-01-25T17:06:51;38.10;;;19.63;;
37297;SDS011;30517;51.932;4.278;2023-01-25T17:09:32;41.78;;;18.77;;
37297;SDS011;30517;51.932;4.278;2023-01-25T17:12:13;40.88;;;19.85;;
37297;SDS011;30517;51.932;4.278;2023-01-25T17:14:53;39.25;;;17.73;;
37297;SDS011;30517;51.932;4.278;2023-01-25T17:17:35;44.65;;;21.20;;
37297;SDS011;30517;51.932;4.278;2023-01-25T17:20:15;36.35;;;19.88;;
37297;SDS011;30517;51.932;4.278;2023-01-25T17:22:56;40.50;;;19.27;;
37297;SDS011;30517;51.932;4.278;2023-01-25T17:25:37;36.22;;;19.45;;
37297;SDS011;30517;51.932;4.278;2023-01-25T17:28:18;41.78;;;19.88;;
37297;SDS011;30517;51.932;4.278;2023-01-25T17:30:59;42.78;;;18.88;;
37297;SDS011;30517;51.932;4.278;2023-01-25T17:33:40;41.25;;;19.67;;
37297;SDS011;30517;51.932;4.278;2023-01-25T17:36:21;43.15;;;19.52;;
37297;SDS011;30517;51.932;4.278;2023-01-25T17:39:02;41.72;;;20.90;;
37297;SDS011;30517;51.932;4.278;2023-01-25T17:41:47;40.58;;;21.20;;
37297;SDS011;30517;51.932;4.278;2023-01-25T17:44:29;43.47;;;20.63;;